Time;durP1;ratioP1;P1;durP2;ratioP2;P2;SDS_P1;SDS_P2;PMS_P1;PMS_P2;Temp;Humidity;BMP_temperature;BMP_pressure;BME280_temperature;BME280_humidity;BME280_pressure;Samples;Min_cycle;Max_cycle;Signal;HPM_P1;HPM_P2
2023/09/09 00:02:07;;;;;;;80.60;76.73;;;;;;;17.15;100.00;101717.97;4979489;28;20442;-40
2023/09/09 00:04:35;;;;;;;77.47;74.37;;;;;;;17.09;100.00;101732.28;4999017;28;20433;-44
2023/09/09 00:07:03;;;;;;;81.77;78.27;;;;;;;17.03;100.00;101733.16;4982552;28;20502;-41
2023/09/09 00:09:33;;;;;;;81.97;78.13;;;;;;;16.97;100.00;101731.31;4988097;28;20473;-41
2023/09/09 00:12:00;;;;;;;81.37;77.87;;;;;;;16.93;100.00;101727.41;4979841;28;20813;-41
2023/09/09 00:14:29;;;;;;;77.20;74.00;;;;;;;16.91;100.00;101725.94;4994717;28;20442;-41
2023/09/09 00:16:57;;;;;;;81.33;77.77;;;;;;;16.88;100.00;101723.69;4980529;28;20446;-40
2023/09/09 00:19:27;;;;;;;81.70;78.03;;;;;;;16.85;100.00;101719.56;4990000;28;20493;-43
2023/09/09 00:21:56;;;;;;;81.60;77.90;;;;;;;16.86;100.00;101717.69;4990338;28;20470;-39
2023/09/09 00:24:23;;;;;;;81.30;77.80;;;;;;;16.84;100.00;101717.09;4987090;28;20454;-40
2023/09/09 00:26:55;;;;;;;84.53;81.00;;;;;;;16.81;100.00;101718.34;4982550;28;20441;-41
2023/09/09 00:29:22;;;;;;;78.37;74.73;;;;;;;16.77;100.00;101709.03;4994239;28;20806;-40
2023/09/09 00:31:50;;;;;;;78.93;75.33;;;;;;;16.73;100.00;101713.19;4987159;28;20442;-41
2023/09/09 00:34:18;;;;;;;81.37;77.50;;;;;;;16.70;100.00;101702.84;4992857;28;20455;-41
2023/09/09 00:36:46;;;;;;;75.97;72.23;;;;;;;16.65;100.00;101715.28;4987299;28;20427;-43
2023/09/09 00:39:14;;;;;;;74.43;71.30;;;;;;;16.61;100.00;101704.13;4980602;28;20467;-40
2023/09/09 00:41:42;;;;;;;75.63;71.97;;;;;;;16.59;100.00;101714.28;4982459;28;20512;-45
2023/09/09 00:44:11;;;;;;;73.63;70.60;;;;;;;16.55;100.00;101713.88;4982873;28;20466;-41
2023/09/09 00:46:38;;;;;;;67.20;63.77;;;;;;;16.52;100.00;101714.25;4981831;28;20493;-42
2023/09/09 00:49:06;;;;;;;68.37;64.97;;;;;;;16.50;100.00;101713.66;4989872;28;20466;-43
2023/09/09 00:51:37;;;;;;;68.77;65.83;;;;;;;16.50;100.00;101713.66;4990613;28;20518;-40
2023/09/09 00:54:05;;;;;;;70.37;66.30;;;;;;;16.48;100.00;101706.84;4982017;28;20876;-42
2023/09/09 00:56:34;;;;;;;70.83;67.73;;;;;;;16.47;100.00;101707.88;4989505;28;20435;-43
2023/09/09 00:59:02;;;;;;;64.17;61.47;;;;;;;16.46;100.00;101711.59;4982545;28;20548;-43
2023/09/09 01:01:32;;;;;;;72.20;69.00;;;;;;;16.49;100.00;101706.59;4982703;28;20567;-41
2023/09/09 01:04:00;;;;;;;72.47;69.27;;;;;;;16.51;100.00;101709.94;4982610;28;20458;-41
2023/09/09 01:06:29;;;;;;;76.10;72.63;;;;;;;16.52;100.00;101708.03;4982772;28;20445;-40
2023/09/09 01:08:56;;;;;;;72.00;69.10;;;;;;;16.50;100.00;101696.66;4981157;28;20461;-45
2023/09/09 01:11:24;;;;;;;74.10;70.57;;;;;;;16.47;100.00;101699.78;4984416;28;20510;-43
2023/09/09 01:13:52;;;;;;;67.63;64.83;;;;;;;16.41;100.00;101697.94;4994895;28;20470;-41
2023/09/09 01:16:20;;;;;;;67.20;63.90;;;;;;;16.40;100.00;101698.97;4981991;28;20439;-43
2023/09/09 01:18:49;;;;;;;66.77;63.27;;;;;;;16.34;100.00;101694.44;4982030;28;20510;-40
2023/09/09 01:21:19;;;;;;;68.73;65.80;;;;;;;16.34;100.00;101700.66;4999677;28;20473;-43
2023/09/09 01:23:49;;;;;;;77.27;74.07;;;;;;;16.34;100.00;101697.13;4987656;28;20451;-39
2023/09/09 01:26:16;;;;;;;75.50;72.20;;;;;;;16.35;100.00;101688.84;4982071;28;20435;-42
2023/09/09 01:28:44;;;;;;;70.97;67.77;;;;;;;16.34;100.00;101694.44;4981105;28;20467;-40
2023/09/09 01:31:12;;;;;;;67.87;64.93;;;;;;;16.30;100.00;101698.59;4981857;28;20455;-43
2023/09/09 01:33:40;;;;;;;67.30;64.20;;;;;;;16.26;100.00;101687.41;4981011;28;20439;-41
2023/09/09 01:36:09;;;;;;;70.90;67.80;;;;;;;16.21;100.00;101689.94;4980979;28;20427;-40
2023/09/09 01:38:36;;;;;;;73.63;70.37;;;;;;;16.16;100.00;101687.03;4985244;28;20497;-41
2023/09/09 01:41:05;;;;;;;76.47;73.10;;;;;;;16.10;100.00;101690.56;4992055;28;20471;-42
2023/09/09 01:43:33;;;;;;;69.23;66.03;;;;;;;16.05;100.00;101687.66;4981487;28;20526;-42
2023/09/09 01:46:01;;;;;;;69.30;66.30;;;;;;;15.99;100.00;101688.50;4980539;28;20427;-40
2023/09/09 01:48:29;;;;;;;68.50;65.47;;;;;;;15.95;100.00;101682.72;4980839;28;20486;-40
2023/09/09 01:50:57;;;;;;;76.10;72.73;;;;;;;15.88;100.00;101686.47;4989464;28;20491;-40
2023/09/09 01:53:25;;;;;;;66.77;63.70;;;;;;;15.85;100.00;101681.50;4989236;28;20431;-41
2023/09/09 01:55:52;;;;;;;70.87;67.83;;;;;;;15.78;100.00;101681.50;4987507;28;21015;-43
2023/09/09 01:58:22;;;;;;;67.70;64.30;;;;;;;15.76;100.00;101675.50;4990190;28;20450;-43
2023/09/09 02:00:49;;;;;;;68.77;65.53;;;;;;;15.75;100.00;101679.22;4988539;28;20546;-40
2023/09/09 02:03:17;;;;;;;68.20;64.83;;;;;;;15.75;100.00;101670.31;4990431;28;20515;-44
2023/09/09 02:05:46;;;;;;;66.00;63.20;;;;;;;15.73;100.00;101673.22;4992415;28;20509;-41
2023/09/09 02:08:14;;;;;;;65.73;63.00;;;;;;;15.69;100.00;101669.28;4990234;28;20481;-43
2023/09/09 02:10:42;;;;;;;63.43;60.67;;;;;;;15.68;100.00;101682.97;4992878;28;20512;-40
2023/09/09 02:13:10;;;;;;;61.17;58.37;;;;;;;15.63;100.00;101674.66;4993115;28;20426;-43
2023/09/09 02:15:39;;;;;;;64.17;61.47;;;;;;;15.60;100.00;101678.59;4989211;28;20431;-40
2023/09/09 02:18:07;;;;;;;65.80;62.63;;;;;;;15.59;100.00;101671.56;4988445;28;20455;-41
2023/09/09 02:20:35;;;;;;;66.23;63.33;;;;;;;15.59;100.00;101671.56;4989034;28;20594;-41
2023/09/09 02:23:04;;;;;;;65.90;62.90;;;;;;;15.57;100.00;101670.13;4989085;28;20481;-43
2023/09/09 02:25:31;;;;;;;66.17;63.23;;;;;;;15.56;100.00;101663.09;4980754;28;20510;-42
2023/09/09 02:27:59;;;;;;;70.13;67.10;;;;;;;15.54;100.00;101660.59;4984986;28;20490;-40
2023/09/09 02:30:27;;;;;;;69.80;66.73;;;;;;;15.56;100.00;101657.72;4980171;28;20530;-41
2023/09/09 02:32:57;;;;;;;66.10;63.20;;;;;;;15.54;100.00;101660.59;4981768;28;20439;-42
2023/09/09 02:35:25;;;;;;;64.67;61.80;;;;;;;15.54;100.00;101655.22;4990748;28;20437;-40
2023/09/09 02:37:53;;;;;;;66.77;63.57;;;;;;;15.55;100.00;101654.19;4986028;28;20461;-45
2023/09/09 02:40:21;;;;;;;75.23;71.87;;;;;;;15.58;100.00;101658.34;4979499;28;20581;-40
2023/09/09 02:42:49;;;;;;;93.43;89.50;;;;;;;15.67;100.00;101660.63;4980777;28;20478;-40
2023/09/09 02:45:17;;;;;;;79.37;75.77;;;;;;;15.70;100.00;101660.19;4982085;28;20430;-40
2023/09/09 02:47:45;;;;;;;83.10;79.40;;;;;;;15.76;100.00;101664.75;4987374;28;20545;-40
2023/09/09 02:50:14;;;;;;;82.63;78.93;;;;;;;15.80;100.00;101660.59;4996907;28;20450;-44
2023/09/09 02:52:42;;;;;;;79.50;76.10;;;;;;;15.81;100.00;101661.41;4979734;28;20498;-40
2023/09/09 02:55:10;;;;;;;78.37;74.77;;;;;;;15.76;100.00;101664.75;4981203;28;20811;-40
2023/09/09 02:57:37;;;;;;;83.10;79.63;;;;;;;15.70;100.00;101657.50;4987944;28;20549;-41
2023/09/09 03:00:07;;;;;;;83.50;80.00;;;;;;;15.61;100.00;101656.06;4987904;28;20492;-41
2023/09/09 03:02:35;;;;;;;77.73;74.63;;;;;;;15.52;100.00;101651.94;4994875;28;20911;-42
2023/09/09 03:05:04;;;;;;;72.60;69.50;;;;;;;15.50;100.00;101654.00;4979394;28;20458;-40
2023/09/09 03:07:34;;;;;;;69.90;67.00;;;;;;;15.48;100.00;101661.44;4982051;28;21040;-41
2023/09/09 03:10:02;;;;;;;67.77;64.57;;;;;;;15.46;100.00;101650.03;4979578;28;20465;-41
2023/09/09 03:12:30;;;;;;;67.53;64.83;;;;;;;15.42;100.00;101651.47;4980424;28;20431;-41
2023/09/09 03:14:58;;;;;;;71.00;68.20;;;;;;;15.41;100.00;101650.63;4980378;28;20446;-40
2023/09/09 03:17:29;;;;;;;77.93;74.63;;;;;;;15.44;100.00;101649.44;4979050;28;20878;-41
2023/09/09 03:19:57;;;;;;;79.50;76.20;;;;;;;15.45;100.00;101653.75;4987765;28;20793;-42
2023/09/09 03:22:25;;;;;;;70.77;67.77;;;;;;;15.45;100.00;101648.38;4980381;28;20478;-40
2023/09/09 03:24:54;;;;;;;84.93;81.00;;;;;;;15.51;100.00;101644.88;4980184;28;20533;-41
2023/09/09 03:27:22;;;;;;;94.17;89.83;;;;;;;15.59;100.00;101647.34;4988001;28;20541;-44
2023/09/09 03:29:49;;;;;;;86.07;82.40;;;;;;;15.63;100.00;101642.41;4985885;28;20537;-42
2023/09/09 03:32:17;;;;;;;76.40;73.20;;;;;;;15.59;100.00;101644.66;4983536;28;20431;-45
2023/09/09 03:34:45;;;;;;;75.67;72.60;;;;;;;15.57;100.00;101646.75;4987279;28;20458;-41
2023/09/09 03:37:13;;;;;;;73.57;70.37;;;;;;;15.56;100.00;101638.91;4986476;28;20443;-43
2023/09/09 03:39:42;;;;;;;75.03;72.00;;;;;;;15.55;100.00;101648.81;4979107;28;20458;-41
2023/09/09 03:42:11;;;;;;;72.90;69.77;;;;;;;15.53;100.00;101642.81;4981373;28;20474;-43
2023/09/09 03:44:39;;;;;;;70.60;67.70;;;;;;;15.48;100.00;101650.69;4982975;28;20440;-40
2023/09/09 03:47:06;;;;;;;74.63;71.43;;;;;;;15.42;100.00;101652.31;4992234;28;20511;-42
2023/09/09 03:49:34;;;;;;;71.10;68.07;;;;;;;15.37;100.00;101648.59;4979592;28;20542;-40
2023/09/09 03:52:02;;;;;;;77.63;74.63;;;;;;;15.32;100.00;101649.19;4990975;28;20865;-46
2023/09/09 03:54:30;;;;;;;67.80;65.10;;;;;;;15.28;100.00;101642.59;5004289;28;20433;-42
2023/09/09 03:56:58;;;;;;;70.70;67.57;;;;;;;15.22;100.00;101653.31;4995538;28;20422;-42
2023/09/09 03:59:29;;;;;;;72.20;69.20;;;;;;;15.17;100.00;101642.38;4993172;28;20481;-41
2023/09/09 04:01:58;;;;;;;73.03;69.90;;;;;;;15.11;100.00;101644.03;4983310;28;20446;-40
2023/09/09 04:04:26;;;;;;;73.97;70.87;;;;;;;15.09;100.00;101650.59;4983622;28;20501;-41
2023/09/09 04:06:54;;;;;;;73.07;69.90;;;;;;;15.02;100.00;101647.94;4996155;28;20436;-45
2023/09/09 04:09:22;;;;;;;75.40;72.07;;;;;;;14.96;100.00;101638.00;5000177;28;20483;-40
2023/09/09 04:11:50;;;;;;;72.43;69.33;;;;;;;14.93;100.00;101641.88;4991791;28;20489;-40
2023/09/09 04:14:18;;;;;;;76.17;72.63;;;;;;;14.89;100.00;101640.66;4983824;28;20607;-42
2023/09/09 04:16:47;;;;;;;74.30;71.00;;;;;;;14.90;100.00;101639.59;4983547;28;20442;-40
2023/09/09 04:19:15;;;;;;;76.03;72.83;;;;;;;14.85;100.00;101639.41;4982092;28;20459;-40
2023/09/09 04:21:43;;;;;;;80.53;77.23;;;;;;;14.80;100.00;101641.03;5003570;28;20937;-42
2023/09/09 04:24:11;;;;;;;72.33;69.03;;;;;;;14.77;100.00;101636.06;4986753;28;20842;-40
2023/09/09 04:26:39;;;;;;;77.50;74.20;;;;;;;14.72;100.00;101634.00;4986304;28;20434;-41
2023/09/09 04:29:07;;;;;;;72.80;69.67;;;;;;;14.68;100.00;101629.22;4993653;28;20522;-43
2023/09/09 04:31:35;;;;;;;70.87;67.93;;;;;;;14.68;100.00;101626.53;4990526;28;20459;-41
2023/09/09 04:34:04;;;;;;;73.93;70.70;;;;;;;14.67;100.00;101624.88;4983283;28;20438;-40
2023/09/09 04:36:31;;;;;;;72.27;69.20;;;;;;;14.63;100.00;101637.91;4982551;28;20435;-42
2023/09/09 04:38:59;;;;;;;72.80;69.70;;;;;;;14.64;100.00;101636.03;4982055;28;20451;-43
2023/09/09 04:41:27;;;;;;;67.20;64.37;;;;;;;14.61;100.00;101639.94;4984651;28;20435;-43
2023/09/09 04:43:55;;;;;;;69.23;66.23;;;;;;;14.62;100.00;101638.91;4988934;28;20524;-41
2023/09/09 04:46:23;;;;;;;69.70;66.80;;;;;;;14.63;100.00;101640.59;4990688;28;20506;-41
2023/09/09 04:48:52;;;;;;;66.83;63.70;;;;;;;14.61;100.00;101631.88;4982390;28;20540;-40
2023/09/09 04:51:22;;;;;;;63.57;60.93;;;;;;;14.65;100.00;101640.38;4982431;28;20431;-42
2023/09/09 04:53:50;;;;;;;62.70;59.80;;;;;;;14.66;100.00;101633.97;4986272;28;20437;-41
2023/09/09 04:56:18;;;;;;;65.13;62.27;;;;;;;14.67;100.00;101641.00;4992687;28;20937;-40
2023/09/09 04:58:45;;;;;;;60.00;57.40;;;;;;;14.69;100.00;101642.47;4985076;28;20450;-40
2023/09/09 05:01:13;;;;;;;62.03;59.23;;;;;;;14.71;100.00;101635.03;4993091;28;20446;-39
2023/09/09 05:03:41;;;;;;;56.93;54.23;;;;;;;14.77;100.00;101641.44;4985572;28;20561;-43
2023/09/09 05:06:09;;;;;;;53.03;50.43;;;;;;;14.81;100.00;101642.72;4994953;28;20458;-42
2023/09/09 05:08:38;;;;;;;50.43;48.03;;;;;;;14.86;100.00;101642.91;4982095;28;20455;-43
2023/09/09 05:11:06;;;;;;;50.70;48.50;;;;;;;14.89;100.00;101639.81;4982024;28;20724;-41
2023/09/09 05:13:34;;;;;;;47.27;45.00;;;;;;;15.02;100.00;101649.78;4983529;28;20455;-42
2023/09/09 05:16:03;;;;;;;44.57;42.60;;;;;;;15.14;100.00;101648.16;4986506;28;20481;-41
2023/09/09 05:18:30;;;;;;;44.53;42.43;;;;;;;15.23;100.00;101645.03;4989459;28;20453;-42
2023/09/09 05:20:58;;;;;;;42.90;41.00;;;;;;;15.34;100.00;101646.31;4996635;28;20485;-41
2023/09/09 05:23:26;;;;;;;43.07;40.93;;;;;;;15.44;100.00;101644.03;4991554;28;20470;-40
2023/09/09 05:25:55;;;;;;;42.20;40.20;;;;;;;15.49;100.00;101641.59;4981811;28;20486;-40
2023/09/09 05:28:23;;;;;;;38.63;36.63;;;;;;;15.59;100.00;101641.19;4980458;28;20486;-41
2023/09/09 05:30:50;;;;;;;39.87;37.77;;;;;;;15.64;100.00;101644.91;4980595;28;20459;-40
2023/09/09 05:33:19;;;;;;;41.10;39.10;;;;;;;15.77;100.00;101636.00;4997716;28;20453;-40
2023/09/09 05:35:50;;;;;;;35.43;33.73;;;;;;;16.04;100.00;101638.41;4981330;28;20466;-40
2023/09/09 05:38:17;;;;;;;32.03;30.07;;;;;;;16.54;100.00;101638.72;4980603;28;20521;-41
2023/09/09 05:40:45;;;;;;;28.50;26.90;;;;;;;17.22;100.00;101638.91;4997224;28;20521;-43
2023/09/09 05:43:14;;;;;;;28.60;27.10;;;;;;;18.38;100.00;101635.34;4980441;28;20474;-41
2023/09/09 05:45:42;;;;;;;25.67;24.37;;;;;;;19.47;100.00;101636.97;4988855;28;20435;-41
2023/09/09 05:48:10;;;;;;;24.57;23.43;;;;;;;20.45;100.00;101632.44;4996913;28;20905;-40
2023/09/09 05:50:38;;;;;;;27.87;26.40;;;;;;;21.13;100.00;101629.69;4992842;28;20465;-41
2023/09/09 05:53:05;;;;;;;25.97;24.67;;;;;;;21.50;100.00;101613.75;4986814;28;20437;-42
2023/09/09 05:55:33;;;;;;;25.93;24.53;;;;;;;22.13;100.00;101607.09;4983843;28;20517;-42
2023/09/09 05:58:01;;;;;;;24.43;23.13;;;;;;;22.86;100.00;101601.97;4996270;28;20482;-40
2023/09/09 06:00:30;;;;;;;24.60;23.10;;;;;;;23.57;100.00;101603.44;4989657;28;20457;-41
2023/09/09 06:02:58;;;;;;;25.20;24.00;;;;;;;24.21;100.00;101609.56;4981866;28;21021;-42
2023/09/09 06:05:26;;;;;;;25.60;24.20;;;;;;;24.86;100.00;101602.69;4982999;28;20473;-41
2023/09/09 06:07:54;;;;;;;20.67;19.57;;;;;;;25.45;100.00;101597.50;4987093;28;20485;-42
2023/09/09 06:10:22;;;;;;;21.53;20.23;;;;;;;26.12;100.00;101597.09;4992888;28;20549;-41
2023/09/09 06:12:50;;;;;;;21.97;20.77;;;;;;;26.62;100.00;101596.06;4981180;28;20439;-41
2023/09/09 06:15:17;;;;;;;20.00;19.00;;;;;;;27.06;100.00;101593.31;4988559;28;20446;-41
2023/09/09 06:17:47;;;;;;;19.47;18.57;;;;;;;27.69;100.00;101609.75;4986335;28;20485;-44
2023/09/09 06:20:14;;;;;;;20.57;19.57;;;;;;;28.07;100.00;101603.34;4976107;28;20469;-41
2023/09/09 06:22:42;;;;;;;21.00;19.80;;;;;;;28.50;100.00;101599.50;4971259;28;20431;-42
2023/09/09 06:25:10;;;;;;;15.30;14.50;;;;;;;29.02;100.00;101603.16;4978494;28;20885;-42
2023/09/09 06:27:37;;;;;;;13.00;12.30;;;;;;;29.34;100.00;101596.88;4991325;28;20556;-42
2023/09/09 06:30:07;;;;;;;12.93;11.97;;;;;;;29.79;99.31;101600.72;4990833;28;20233;-42
2023/09/09 06:32:34;;;;;;;11.50;10.90;;;;;;;30.16;95.14;101604.13;4991700;28;20588;-42
2023/09/09 06:35:05;;;;;;;12.57;11.87;;;;;;;30.41;91.32;101601.97;4990909;28;20188;-41
2023/09/09 06:37:33;;;;;;;12.57;11.77;;;;;;;30.64;86.63;101607.22;4990274;28;20758;-42
2023/09/09 06:40:00;;;;;;;15.53;14.10;;;;;;;30.74;84.10;101608.91;4990422;28;20268;-41
2023/09/09 06:42:28;;;;;;;11.63;10.93;;;;;;;30.76;83.22;101609.44;4989555;28;20233;-44
2023/09/09 06:44:56;;;;;;;13.50;12.57;;;;;;;30.73;78.94;101610.06;4982885;28;20228;-42
2023/09/09 06:47:23;;;;;;;13.20;12.30;;;;;;;30.75;80.36;101610.56;4981425;28;20219;-42
2023/09/09 06:49:51;;;;;;;12.52;11.38;;;;;;;30.81;81.38;101609.31;4989589;28;20218;-42
2023/09/09 06:52:20;;;;;;;13.07;12.17;;;;;;;30.73;76.68;101613.59;4990755;28;20622;-45
2023/09/09 06:54:48;;;;;;;13.60;12.80;;;;;;;30.48;74.71;101616.94;4973271;28;20194;-43
2023/09/09 06:57:16;;;;;;;12.68;11.57;;;;;;;30.28;75.00;101619.28;4988824;28;20666;-41
2023/09/09 06:59:44;;;;;;;13.20;12.40;;;;;;;30.07;75.54;101616.97;4989150;28;20210;-43
2023/09/09 07:02:12;;;;;;;12.50;11.70;;;;;;;30.05;77.16;101626.63;4989448;28;20195;-41
2023/09/09 07:04:40;;;;;;;10.10;9.50;;;;;;;30.18;76.17;101615.63;4989256;28;20304;-41
2023/09/09 07:07:07;;;;;;;9.67;9.07;;;;;;;30.23;75.09;101617.44;4989349;28;20198;-42
2023/09/09 07:09:42;;;;;;;11.48;10.55;;;;;;;30.24;75.78;101613.59;4980500;28;20221;-41
2023/09/09 07:12:11;;;;;;;12.13;11.43;;;;;;;29.83;74.17;101621.84;4989819;28;20605;-41
2023/09/09 07:14:39;;;;;;;13.10;12.10;;;;;;;29.66;74.75;101626.28;4988617;28;20206;-42
2023/09/09 07:17:08;;;;;;;12.47;11.77;;;;;;;29.28;72.15;101631.03;4987797;28;20229;-44
2023/09/09 07:19:37;;;;;;;11.10;10.40;;;;;;;28.99;70.57;101628.47;4982286;28;20313;-41
2023/09/09 07:22:06;;;;;;;11.50;10.70;;;;;;;28.63;76.45;101630.88;4984239;28;20741;-41
2023/09/09 07:24:33;;;;;;;12.40;11.50;;;;;;;28.29;80.11;101622.00;4979220;28;20283;-40
2023/09/09 07:27:03;;;;;;;11.70;10.90;;;;;;;28.03;81.68;101621.47;4987438;28;20195;-43
2023/09/09 07:29:31;;;;;;;12.03;11.23;;;;;;;27.71;83.01;101624.00;4981119;28;20468;-43
2023/09/09 07:31:59;;;;;;;11.73;10.93;;;;;;;27.31;84.21;101622.41;4985568;28;20928;-41
2023/09/09 07:34:27;;;;;;;13.13;12.13;;;;;;;27.03;87.06;101625.94;4992713;28;20524;-41
2023/09/09 07:36:54;;;;;;;11.73;10.93;;;;;;;26.83;89.09;101627.72;4992261;28;20429;-41
2023/09/09 07:39:23;;;;;;;11.87;11.07;;;;;;;26.78;91.79;101624.16;4986001;28;20466;-45
2023/09/09 07:41:50;;;;;;;11.70;10.80;;;;;;;26.88;94.35;101621.41;4985059;28;20552;-40
2023/09/09 07:44:19;;;;;;;13.43;12.40;;;;;;;26.89;91.15;101623.84;4992965;28;20481;-44
2023/09/09 07:46:47;;;;;;;12.10;11.20;;;;;;;27.11;93.88;101630.81;4991976;28;20495;-40
2023/09/09 07:49:15;;;;;;;13.17;12.17;;;;;;;27.34;92.70;101625.41;4984218;28;20500;-41
2023/09/09 07:51:44;;;;;;;14.33;11.70;;;;;;;27.62;88.03;101623.00;4992643;28;20433;-41
2023/09/09 07:54:12;;;;;;;12.67;11.67;;;;;;;27.84;87.03;101621.38;4993227;28;20484;-42
2023/09/09 07:56:42;;;;;;;10.67;9.87;;;;;;;28.10;85.02;101618.41;4984342;28;21378;-44
2023/09/09 07:59:09;;;;;;;11.67;10.80;;;;;;;28.13;83.26;101613.16;4991658;28;20504;-44
2023/09/09 08:01:39;;;;;;;13.00;11.90;;;;;;;28.22;80.96;101621.56;4992644;28;20933;-41
2023/09/09 08:04:06;;;;;;;11.03;10.23;;;;;;;28.21;81.76;101619.91;4992565;28;20433;-41
2023/09/09 08:06:34;;;;;;;13.20;12.07;;;;;;;28.00;80.60;101622.88;4991054;28;20437;-43
2023/09/09 08:09:02;;;;;;;12.27;11.27;;;;;;;27.86;81.83;101626.59;4986182;28;20457;-42
2023/09/09 08:11:30;;;;;;;11.70;10.90;;;;;;;27.62;85.84;101618.34;4992221;28;20461;-41
2023/09/09 08:13:57;;;;;;;11.50;10.73;;;;;;;27.57;88.08;101623.84;4992760;28;20437;-41
2023/09/09 08:16:25;;;;;;;10.87;10.17;;;;;;;27.45;88.72;101623.41;4992438;28;20436;-44
2023/09/09 08:18:55;;;;;;;11.40;10.40;;;;;;;27.36;89.99;101614.97;4992279;28;20459;-42
2023/09/09 08:21:23;;;;;;;11.27;10.03;;;;;;;27.38;90.43;101625.66;4984679;28;20509;-41
2023/09/09 08:23:52;;;;;;;10.30;9.70;;;;;;;27.38;89.68;101629.22;4984779;28;20440;-42
2023/09/09 08:26:20;;;;;;;9.70;8.90;;;;;;;27.32;88.72;101627.63;4983612;28;20473;-40
2023/09/09 08:28:47;;;;;;;11.97;10.87;;;;;;;27.35;90.87;101631.72;4983793;28;21154;-43
2023/09/09 08:31:15;;;;;;;13.37;12.53;;;;;;;27.19;93.94;101631.00;4993321;28;20438;-41
2023/09/09 08:33:43;;;;;;;9.97;9.27;;;;;;;27.26;94.76;101630.69;4984400;28;20555;-43
2023/09/09 08:36:12;;;;;;;13.67;10.30;;;;;;;27.30;93.79;101620.81;4991520;28;20885;-43
2023/09/09 08:38:39;;;;;;;10.60;9.90;;;;;;;27.33;90.79;101617.47;4981619;28;20864;-44
2023/09/09 08:41:12;;;;;;;13.67;10.57;;;;;;;27.33;90.83;101628.41;4991431;28;20445;-43
2023/09/09 08:43:49;;;;;;;8.87;8.27;;;;;;;27.50;92.67;101630.78;4992367;28;20813;-45
2023/09/09 08:46:18;;;;;;;11.77;10.97;;;;;;;27.39;95.17;101628.09;4991039;28;20590;-44
2023/09/09 08:48:46;;;;;;;12.10;11.30;;;;;;;27.43;93.66;101628.38;4976557;28;20470;-41
2023/09/09 08:51:17;;;;;;;10.63;9.73;;;;;;;27.34;94.93;101627.31;4984942;28;20934;-40
2023/09/09 08:53:47;;;;;;;12.20;11.20;;;;;;;27.27;96.59;101624.13;4985604;28;20427;-42
2023/09/09 08:56:15;;;;;;;11.93;11.03;;;;;;;27.45;99.41;101621.50;4986414;28;20444;-43
2023/09/09 08:58:43;;;;;;;13.53;10.70;;;;;;;27.58;96.96;101627.41;4985202;28;20478;-43
2023/09/09 09:01:12;;;;;;;11.57;10.57;;;;;;;27.71;96.92;101629.50;4981145;28;20511;-48
2023/09/09 09:03:40;;;;;;;11.23;10.00;;;;;;;27.74;97.82;101627.00;4979909;28;20848;-44
2023/09/09 09:06:10;;;;;;;11.90;11.03;;;;;;;27.78;95.84;101624.47;4990582;28;20480;-44
2023/09/09 09:08:39;;;;;;;11.73;10.93;;;;;;;27.56;97.69;101624.97;4980971;28;20455;-41
2023/09/09 09:11:08;;;;;;;12.13;11.10;;;;;;;27.61;97.78;101624.91;4988498;28;20454;-41
2023/09/09 09:13:35;;;;;;;10.47;9.67;;;;;;;27.68;98.76;101630.91;4991016;28;20521;-45
2023/09/09 09:16:04;;;;;;;28.63;21.03;;;;;;;27.83;100.00;101633.47;4987743;28;20440;-42
2023/09/09 09:18:32;;;;;;;13.10;11.73;;;;;;;27.87;98.40;101625.47;4986468;28;20512;-44
2023/09/09 09:21:06;;;;;;;15.57;13.83;;;;;;;27.93;100.00;101621.56;4988154;28;20580;-43
2023/09/09 09:23:34;;;;;;;12.17;11.17;;;;;;;28.15;99.57;101619.16;4990151;28;20482;-40
2023/09/09 09:26:04;;;;;;;76.43;21.90;;;;;;;28.32;98.05;101621.41;4991160;28;20477;-41
2023/09/09 09:28:32;;;;;;;11.53;10.10;;;;;;;28.49;96.23;101628.03;4991637;28;20454;-44
2023/09/09 09:30:59;;;;;;;14.63;11.23;;;;;;;28.51;95.03;101623.09;4990259;28;20457;-42
2023/09/09 09:33:31;;;;;;;17.90;15.37;;;;;;;28.59;92.29;101624.34;4990892;28;20433;-42
2023/09/09 09:36:00;;;;;;;13.10;11.97;;;;;;;28.84;93.21;101628.69;4985189;28;20484;-43
2023/09/09 09:38:28;;;;;;;23.80;21.60;;;;;;;28.95;93.33;101628.25;4985284;28;20458;-43
2023/09/09 09:40:59;;;;;;;13.50;12.33;;;;;;;29.12;90.81;101618.66;4981283;28;20464;-46
2023/09/09 09:43:28;;;;;;;9.87;9.07;;;;;;;29.21;86.95;101619.59;4991154;28;20460;-42
2023/09/09 09:45:56;;;;;;;9.53;8.60;;;;;;;29.23;84.38;101626.47;4987708;28;20563;-42
2023/09/09 09:48:27;;;;;;;9.67;8.87;;;;;;;29.34;81.38;101624.34;4977636;28;20462;-45
2023/09/09 09:50:54;;;;;;;9.90;9.10;;;;;;;29.45;83.73;101609.34;4988504;28;20612;-42
2023/09/09 09:53:22;;;;;;;9.13;8.33;;;;;;;29.51;86.26;101613.63;4984181;28;20437;-41
2023/09/09 09:55:53;;;;;;;8.70;8.10;;;;;;;29.65;85.04;101611.72;4978902;28;20441;-45
2023/09/09 09:58:22;;;;;;;8.73;8.13;;;;;;;29.74;83.99;101614.56;4977319;28;20545;-42
2023/09/09 10:00:53;;;;;;;9.10;8.50;;;;;;;29.84;81.09;101612.47;4982186;28;21202;-44
2023/09/09 10:03:24;;;;;;;8.60;8.00;;;;;;;29.96;79.22;101599.03;4973582;28;20438;-44
2023/09/09 10:05:54;;;;;;;8.47;7.90;;;;;;;30.06;77.43;101598.81;4990318;28;20509;-42
2023/09/09 10:08:30;;;;;;;8.50;7.97;;;;;;;30.05;75.25;101605.44;4979735;28;21137;-47
2023/09/09 10:11:03;;;;;;;9.97;9.27;;;;;;;29.93;78.79;101596.88;4983817;28;20540;-43
2023/09/09 10:13:36;;;;;;;8.50;7.80;;;;;;;29.99;78.83;101592.91;4976804;28;20492;-43
2023/09/09 10:16:07;;;;;;;8.53;7.93;;;;;;;30.15;76.24;101591.47;4990547;28;21033;-43
2023/09/09 10:18:36;;;;;;;8.70;8.20;;;;;;;30.24;76.46;101593.50;4990007;28;20453;-42
2023/09/09 10:21:06;;;;;;;8.70;8.03;;;;;;;30.34;75.63;101588.63;4977730;28;21009;-45
2023/09/09 10:23:34;;;;;;;8.00;7.50;;;;;;;30.37;72.31;101585.25;4977519;28;20458;-43
2023/09/09 10:26:04;;;;;;;7.77;7.27;;;;;;;30.43;70.96;101586.78;4990393;28;20548;-41
2023/09/09 10:28:32;;;;;;;8.43;7.77;;;;;;;30.50;72.85;101587.16;4987950;28;20457;-41
2023/09/09 10:31:00;;;;;;;9.20;8.27;;;;;;;30.49;69.99;101599.31;4990209;28;20541;-42
2023/09/09 10:33:30;;;;;;;7.77;7.27;;;;;;;30.52;72.90;101593.19;4990597;28;20808;-47
2023/09/09 10:35:59;;;;;;;12.37;7.87;;;;;;;30.61;72.55;101596.03;4990707;28;20464;-42
2023/09/09 10:38:27;;;;;;;7.97;7.47;;;;;;;30.64;72.23;101598.94;4989935;28;20485;-42
2023/09/09 10:40:55;;;;;;;8.90;8.10;;;;;;;30.77;71.39;101596.47;4989401;28;20457;-42
2023/09/09 10:43:23;;;;;;;8.07;7.47;;;;;;;30.87;69.26;101596.22;4990537;28;20544;-44
2023/09/09 10:45:51;;;;;;;7.53;7.07;;;;;;;30.87;69.25;101591.53;4989738;28;20273;-46
2023/09/09 10:48:21;;;;;;;8.07;7.30;;;;;;;30.92;69.14;101596.09;4979343;28;20485;-41
2023/09/09 10:50:51;;;;;;;7.37;6.67;;;;;;;30.93;66.98;101590.31;4986000;28;20465;-42
2023/09/09 10:53:23;;;;;;;7.40;6.80;;;;;;;31.02;67.58;101593.97;4978292;28;20195;-44
2023/09/09 10:55:53;;;;;;;8.27;7.40;;;;;;;30.95;64.48;101588.06;4987045;28;20429;-43
2023/09/09 10:58:30;;;;;;;7.70;7.10;;;;;;;31.03;64.95;101590.06;4986669;28;20699;-43
2023/09/09 11:00:58;;;;;;;7.97;7.37;;;;;;;31.01;65.24;101597.00;4973079;28;20458;-44
2023/09/09 11:03:36;;;;;;;8.80;7.53;;;;;;;30.95;63.40;101581.75;4983063;28;20229;-45
2023/09/09 11:06:07;;;;;;;7.03;6.53;;;;;;;30.94;65.78;101580.94;4988770;28;20473;-41
2023/09/09 11:08:36;;;;;;;7.60;7.10;;;;;;;31.04;65.43;101588.13;4989971;28;20547;-47
2023/09/09 11:11:09;;;;;;;8.17;7.07;;;;;;;31.08;64.47;101581.69;4985413;28;20219;-41
2023/09/09 11:13:41;;;;;;;6.77;6.27;;;;;;;31.14;64.37;101591.47;4986509;28;20670;-45